sensor_id;sensor_type;location;lat;lon;timestamp;pressure;altitude;pressure_sealevel;temperature;humidity
56719;BME280;42597;40.636;0.278;2023-05-24T00:01:34;97081.94;;;20.07;63.92
56719;BME280;42597;40.636;0.278;2023-05-24T00:04:02;97085.94;;;20.29;60.87
56719;BME280;42597;40.636;0.278;2023-05-24T00:06:28;97073.13;;;20.53;58.92
56719;BME280;42597;40.636;0.278;2023-05-24T00:08:55;97077.13;;;20.76;57.80
56719;BME280;42597;40.636;0.278;2023-05-24T00:11:21;97069.63;;;20.80;57.69
56719;BME280;42597;40.636;0.278;2023-05-24T00:13:48;97064.84;;;20.84;57.26
56719;BME280;42597;40.636;0.278;2023-05-24T00:16:14;97056.19;;;20.85;57.03
56719;BME280;42597;40.636;0.278;2023-05-24T00:18:40;97067.94;;;20.86;56.83
56719;BME280;42597;40.636;0.278;2023-05-24T00:21:08;97052.69;;;20.85;56.90
56719;BME280;42597;40.636;0.278;2023-05-24T00:23:35;97054.78;;;20.74;56.33
56719;BME280;42597;40.636;0.278;2023-05-24T00:26:03;97047.47;;;20.67;57.35
56719;BME280;42597;40.636;0.278;2023-05-24T00:28:29;97050.97;;;20.67;57.41
56719;BME280;42597;40.636;0.278;2023-05-24T00:30:56;97043.81;;;20.74;57.42
56719;BME280;42597;40.636;0.278;2023-05-24T00:33:22;97041.47;;;20.14;57.01
56719;BME280;42597;40.636;0.278;2023-05-24T00:35:49;97042.38;;;20.65;57.75
56719;BME280;42597;40.636;0.278;2023-05-24T00:38:19;97047.66;;;20.80;57.20
56719;BME280;42597;40.636;0.278;2023-05-24T00:40:45;97036.88;;;20.65;57.42
56719;BME280;42597;40.636;0.278;2023-05-24T00:43:10;97033.72;;;20.67;57.49
56719;BME280;42597;40.636;0.278;2023-05-24T00:45:36;97040.97;;;20.81;56.98
56719;BME280;42597;40.636;0.278;2023-05-24T00:48:02;97041.75;;;20.81;56.84
56719;BME280;42597;40.636;0.278;2023-05-24T00:50:28;97052.31;;;20.83;56.83
56719;BME280;42597;40.636;0.278;2023-05-24T00:52:55;97046.84;;;20.83;56.74
56719;BME280;42597;40.636;0.278;2023-05-24T00:55:22;97046.84;;;20.83;56.75
56719;BME280;42597;40.636;0.278;2023-05-24T00:57:49;97042.13;;;20.83;56.81
56719;BME280;42597;40.636;0.278;2023-05-24T01:00:16;97047.59;;;20.83;56.69
56719;BME280;42597;40.636;0.278;2023-05-24T01:02:42;97043.72;;;20.81;56.76
56719;BME280;42597;40.636;0.278;2023-05-24T01:05:08;97046.84;;;20.83;56.74
56719;BME280;42597;40.636;0.278;2023-05-24T01:07:44;97055.84;;;20.83;56.75
56719;BME280;42597;40.636;0.278;2023-05-24T01:13:00;97060.97;;;20.81;56.66
56719;BME280;42597;40.636;0.278;2023-05-24T01:15:58;97056.25;;;20.82;56.68
56719;BME280;42597;40.636;0.278;2023-05-24T01:18:32;97060.19;;;20.81;56.81
56719;BME280;42597;40.636;0.278;2023-05-24T01:26:41;97064.13;;;20.80;56.54
56719;BME280;42597;40.636;0.278;2023-05-24T01:29:12;97062.78;;;20.64;57.08
56719;BME280;42597;40.636;0.278;2023-05-24T01:31:39;97059.56;;;20.69;56.98
56719;BME280;42597;40.636;0.278;2023-05-24T01:34:05;97065.91;;;20.66;56.71
56719;BME280;42597;40.636;0.278;2023-05-24T01:36:31;97060.28;;;20.12;56.19
56719;BME280;42597;40.636;0.278;2023-05-24T01:38:57;97066.53;;;19.37;59.02
56719;BME280;42597;40.636;0.278;2023-05-24T01:41:47;97067.09;;;19.66;58.50
56719;BME280;42597;40.636;0.278;2023-05-24T01:49:49;97065.53;;;20.64;57.37
56719;BME280;42597;40.636;0.278;2023-05-24T01:52:18;97065.91;;;20.66;56.92
56719;BME280;42597;40.636;0.278;2023-05-24T01:54:49;97064.69;;;20.67;56.92
56719;BME280;42597;40.636;0.278;2023-05-24T01:57:18;97072.94;;;20.67;56.97
56719;BME280;42597;40.636;0.278;2023-05-24T01:59:45;97062.72;;;20.68;56.95
56719;BME280;42597;40.636;0.278;2023-05-24T02:02:12;97064.31;;;20.65;57.02
56719;BME280;42597;40.636;0.278;2023-05-24T02:04:38;97063.16;;;20.66;56.91
56719;BME280;42597;40.636;0.278;2023-05-24T02:07:04;97062.78;;;20.64;56.84
56719;BME280;42597;40.636;0.278;2023-05-24T02:09:29;97055.75;;;20.63;56.89
56719;BME280;42597;40.636;0.278;2023-05-24T02:11:55;97057.28;;;20.64;56.77
56719;BME280;42597;40.636;0.278;2023-05-24T02:14:20;97061.59;;;20.65;56.84
56719;BME280;42597;40.636;0.278;2023-05-24T02:16:46;97054.53;;;20.64;56.59
56719;BME280;42597;40.636;0.278;2023-05-24T02:19:13;97053.47;;;20.58;57.10
56719;BME280;42597;40.636;0.278;2023-05-24T02:21:38;97039.47;;;20.49;57.48
56719;BME280;42597;40.636;0.278;2023-05-24T02:24:05;97041.72;;;20.54;57.24
56719;BME280;42597;40.636;0.278;2023-05-24T02:26:32;97044.00;;;20.63;57.08
56719;BME280;42597;40.636;0.278;2023-05-24T02:28:57;97040.03;;;20.64;56.78
56719;BME280;42597;40.636;0.278;2023-05-24T02:31:23;97044.75;;;20.63;56.94
56719;BME280;42597;40.636;0.278;2023-05-24T02:33:53;97040.47;;;20.62;56.69
56719;BME280;42597;40.636;0.278;2023-05-24T02:36:19;97048.09;;;20.48;57.06
56719;BME280;42597;40.636;0.278;2023-05-24T02:38:44;97039.31;;;20.60;56.79
56719;BME280;42597;40.636;0.278;2023-05-24T02:41:10;97036.16;;;20.61;56.76
56719;BME280;42597;40.636;0.278;2023-05-24T02:43:42;97039.13;;;20.13;54.67
56719;BME280;42597;40.636;0.278;2023-05-24T02:46:08;97043.56;;;20.34;57.64
56719;BME280;42597;40.636;0.278;2023-05-24T02:48:33;97033.94;;;19.88;56.80
56719;BME280;42597;40.636;0.278;2023-05-24T02:50:59;97038.38;;;19.37;58.41
56719;BME280;42597;40.636;0.278;2023-05-24T02:53:27;97036.56;;;19.61;59.46
56719;BME280;42597;40.636;0.278;2023-05-24T02:55:53;97036.25;;;19.14;57.46
56719;BME280;42597;40.636;0.278;2023-05-24T02:58:19;97030.66;;;19.24;57.71
56719;BME280;42597;40.636;0.278;2023-05-24T03:00:44;97024.97;;;19.01;59.00
56719;BME280;42597;40.636;0.278;2023-05-24T03:03:11;97026.72;;;19.26;59.88
56719;BME280;42597;40.636;0.278;2023-05-24T03:05:37;97028.34;;;19.19;59.93
56719;BME280;42597;40.636;0.278;2023-05-24T03:08:03;97030.09;;;19.44;59.27
56719;BME280;42597;40.636;0.278;2023-05-24T03:10:28;97034.25;;;18.62;58.64
56719;BME280;42597;40.636;0.278;2023-05-24T03:12:54;97035.81;;;18.63;58.91
56719;BME280;42597;40.636;0.278;2023-05-24T03:15:20;97027.94;;;18.72;61.41
56719;BME280;42597;40.636;0.278;2023-05-24T03:17:46;97028.78;;;18.62;60.48
56719;BME280;42597;40.636;0.278;2023-05-24T03:20:11;97024.09;;;17.71;61.30
56719;BME280;42597;40.636;0.278;2023-05-24T03:22:37;97021.22;;;18.18;63.36
56719;BME280;42597;40.636;0.278;2023-05-24T03:25:03;97030.38;;;18.56;60.51
56719;BME280;42597;40.636;0.278;2023-05-24T03:27:29;97022.06;;;19.22;60.91
56719;BME280;42597;40.636;0.278;2023-05-24T03:29:55;97030.00;;;19.89;58.95
56719;BME280;42597;40.636;0.278;2023-05-24T03:32:21;97018.63;;;19.94;58.72
56719;BME280;42597;40.636;0.278;2023-05-24T03:34:46;97020.66;;;20.17;57.67
56719;BME280;42597;40.636;0.278;2023-05-24T03:37:12;97028.03;;;20.24;57.53
56719;BME280;42597;40.636;0.278;2023-05-24T03:39:38;97023.69;;;20.26;57.48
56719;BME280;42597;40.636;0.278;2023-05-24T03:42:04;97018.59;;;20.25;57.30
56719;BME280;42597;40.636;0.278;2023-05-24T03:44:30;97017.88;;;20.20;57.64
56719;BME280;42597;40.636;0.278;2023-05-24T03:46:55;97022.88;;;19.57;56.59
56719;BME280;42597;40.636;0.278;2023-05-24T03:49:21;97023.56;;;20.06;57.83
56719;BME280;42597;40.636;0.278;2023-05-24T03:51:47;97024.91;;;20.21;57.34
56719;BME280;42597;40.636;0.278;2023-05-24T03:54:13;97028.75;;;20.28;57.26
56719;BME280;42597;40.636;0.278;2023-05-24T03:56:38;97025.75;;;20.18;57.50
56719;BME280;42597;40.636;0.278;2023-05-24T03:59:04;97019.75;;;20.27;57.09
56719;BME280;42597;40.636;0.278;2023-05-24T04:01:30;97035.44;;;20.27;57.05
56719;BME280;42597;40.636;0.278;2023-05-24T04:03:59;97025.16;;;20.34;57.08
56719;BME280;42597;40.636;0.278;2023-05-24T04:06:26;97029.00;;;20.37;56.95
56719;BME280;42597;40.636;0.278;2023-05-24T04:09:02;97030.22;;;20.36;56.84
56719;BME280;42597;40.636;0.278;2023-05-24T04:11:30;97031.03;;;20.33;56.95
56719;BME280;42597;40.636;0.278;2023-05-24T04:13:57;97035.69;;;20.36;56.78
56719;BME280;42597;40.636;0.278;2023-05-24T04:16:26;97039.66;;;20.35;56.79
56719;BME280;42597;40.636;0.278;2023-05-24T04:18:55;97029.50;;;20.32;56.94
56719;BME280;42597;40.636;0.278;2023-05-24T04:21:21;97026.44;;;20.26;57.08
56719;BME280;42597;40.636;0.278;2023-05-24T04:23:47;97031.25;;;20.18;57.57
56719;BME280;42597;40.636;0.278;2023-05-24T04:26:13;97038.09;;;19.65;56.26
56719;BME280;42597;40.636;0.278;2023-05-24T04:28:40;97034.69;;;19.92;57.80
56719;BME280;42597;40.636;0.278;2023-05-24T04:31:07;97033.25;;;20.14;57.50
56719;BME280;42597;40.636;0.278;2023-05-24T04:33:34;97034.97;;;20.32;56.97
56719;BME280;42597;40.636;0.278;2023-05-24T04:36:00;97037.72;;;20.32;56.80
56719;BME280;42597;40.636;0.278;2023-05-24T04:38:27;97041.66;;;20.31;56.87
56719;BME280;42597;40.636;0.278;2023-05-24T04:41:04;97049.44;;;20.36;56.30
56719;BME280;42597;40.636;0.278;2023-05-24T04:43:32;97054.53;;;20.34;56.66
56719;BME280;42597;40.636;0.278;2023-05-24T04:45:59;97049.88;;;20.31;56.37
56719;BME280;42597;40.636;0.278;2023-05-24T04:58:30;97040.63;;;20.17;57.20
56719;BME280;42597;40.636;0.278;2023-05-24T05:00:56;97039.78;;;20.24;56.70
56719;BME280;42597;40.636;0.278;2023-05-24T05:03:21;97039.72;;;20.28;56.52
56719;BME280;42597;40.636;0.278;2023-05-24T05:05:47;97034.28;;;20.24;56.63
56719;BME280;42597;40.636;0.278;2023-05-24T05:08:13;97036.22;;;19.93;57.54
56719;BME280;42597;40.636;0.278;2023-05-24T05:10:39;97038.66;;;19.05;58.54
56719;BME280;42597;40.636;0.278;2023-05-24T05:13:05;97040.47;;;18.73;59.66
56719;BME280;42597;40.636;0.278;2023-05-24T05:15:31;97041.03;;;19.03;60.36
56719;BME280;42597;40.636;0.278;2023-05-24T05:17:57;97051.97;;;18.40;62.46
56719;BME280;42597;40.636;0.278;2023-05-24T05:20:23;97050.91;;;18.16;62.17
56719;BME280;42597;40.636;0.278;2023-05-24T05:22:49;97054.13;;;17.93;64.31
56719;BME280;42597;40.636;0.278;2023-05-24T05:25:15;97053.16;;;18.35;64.09
56719;BME280;42597;40.636;0.278;2023-05-24T05:27:41;97047.63;;;19.05;61.19
56719;BME280;42597;40.636;0.278;2023-05-24T05:30:07;97043.66;;;19.62;59.40
56719;BME280;42597;40.636;0.278;2023-05-24T05:32:33;97038.59;;;19.94;58.26
56719;BME280;42597;40.636;0.278;2023-05-24T05:34:59;97044.63;;;19.79;57.35
56719;BME280;42597;40.636;0.278;2023-05-24T05:37:25;97048.63;;;19.26;59.52
56719;BME280;42597;40.636;0.278;2023-05-24T05:39:51;97048.31;;;19.20;59.84
56719;BME280;42597;40.636;0.278;2023-05-24T05:42:17;97039.34;;;19.57;59.55
56719;BME280;42597;40.636;0.278;2023-05-24T05:44:42;97037.19;;;20.10;57.39
56719;BME280;42597;40.636;0.278;2023-05-24T05:47:08;97031.59;;;20.20;56.88
56719;BME280;42597;40.636;0.278;2023-05-24T05:49:34;97037.69;;;19.70;57.50
56719;BME280;42597;40.636;0.278;2023-05-24T05:52:05;97041.25;;;18.74;61.17
56719;BME280;42597;40.636;0.278;2023-05-24T05:54:31;97036.03;;;18.20;63.16
56719;BME280;42597;40.636;0.278;2023-05-24T05:56:57;97036.78;;;18.32;63.73
56719;BME280;42597;40.636;0.278;2023-05-24T05:59:23;97030.53;;;19.39;60.24
56719;BME280;42597;40.636;0.278;2023-05-24T06:01:48;97032.75;;;19.89;58.21
56719;BME280;42597;40.636;0.278;2023-05-24T06:04:15;97033.78;;;19.68;58.63
56719;BME280;42597;40.636;0.278;2023-05-24T06:06:41;97036.22;;;19.93;58.21
56719;BME280;42597;40.636;0.278;2023-05-24T06:09:07;97034.34;;;20.20;56.84
56719;BME280;42597;40.636;0.278;2023-05-24T06:11:33;97029.53;;;20.28;56.44
56719;BME280;42597;40.636;0.278;2023-05-24T06:13:59;97040.81;;;20.34;56.28
56719;BME280;42597;40.636;0.278;2023-05-24T06:16:25;97045.53;;;20.03;56.93
56719;BME280;42597;40.636;0.278;2023-05-24T06:18:50;97041.13;;;19.78;58.50
56719;BME280;42597;40.636;0.278;2023-05-24T06:21:16;97053.09;;;19.09;62.33
56719;BME280;42597;40.636;0.278;2023-05-24T06:23:42;97052.00;;;18.99;63.77
56719;BME280;42597;40.636;0.278;2023-05-24T06:26:08;97055.97;;;18.91;65.29
56719;BME280;42597;40.636;0.278;2023-05-24T06:28:37;97052.84;;;18.89;65.10
56719;BME280;42597;40.636;0.278;2023-05-24T06:31:04;97052.94;;;19.30;62.26
56719;BME280;42597;40.636;0.278;2023-05-24T06:33:30;97052.53;;;19.28;62.00
56719;BME280;42597;40.636;0.278;2023-05-24T06:35:59;97058.63;;;19.50;61.10
56719;BME280;42597;40.636;0.278;2023-05-24T06:38:25;97054.75;;;19.44;62.87
56719;BME280;42597;40.636;0.278;2023-05-24T06:40:52;97060.28;;;19.37;62.92
56719;BME280;42597;40.636;0.278;2023-05-24T06:43:18;97059.38;;;19.51;61.43
56719;BME280;42597;40.636;0.278;2023-05-24T06:45:45;97055.38;;;19.62;62.73
56719;BME280;42597;40.636;0.278;2023-05-24T06:48:11;97052.22;;;19.60;63.94
56719;BME280;42597;40.636;0.278;2023-05-24T06:50:36;97048.25;;;19.68;63.14
56719;BME280;42597;40.636;0.278;2023-05-24T06:53:02;97053.25;;;19.77;62.68
56719;BME280;42597;40.636;0.278;2023-05-24T06:55:28;97053.59;;;19.83;61.67
56719;BME280;42597;40.636;0.278;2023-05-24T06:57:54;97051.84;;;20.00;59.82
56719;BME280;42597;40.636;0.278;2023-05-24T07:00:20;97047.13;;;20.00;61.11
56719;BME280;42597;40.636;0.278;2023-05-24T07:02:46;97043.84;;;20.12;60.55
56719;BME280;42597;40.636;0.278;2023-05-24T07:05:12;97049.06;;;20.03;59.32
56719;BME280;42597;40.636;0.278;2023-05-24T07:07:42;97049.06;;;20.03;58.62
56719;BME280;42597;40.636;0.278;2023-05-24T07:10:09;97042.09;;;20.26;58.97
56719;BME280;42597;40.636;0.278;2023-05-24T07:12:38;97050.44;;;20.18;58.76
56719;BME280;42597;40.636;0.278;2023-05-24T07:15:05;97051.53;;;20.25;58.52
56719;BME280;42597;40.636;0.278;2023-05-24T07:17:31;97052.72;;;20.54;57.00
56719;BME280;42597;40.636;0.278;2023-05-24T07:19:59;97058.22;;;20.54;57.62
56719;BME280;42597;40.636;0.278;2023-05-24T07:22:25;97058.13;;;20.61;56.84
56719;BME280;42597;40.636;0.278;2023-05-24T07:24:53;97048.47;;;20.46;57.08
56719;BME280;42597;40.636;0.278;2023-05-24T07:27:19;97058.13;;;20.61;56.34
56719;BME280;42597;40.636;0.278;2023-05-24T07:29:45;97051.44;;;20.62;56.40
56719;BME280;42597;40.636;0.278;2023-05-24T07:32:11;97053.16;;;20.80;55.50
56719;BME280;42597;40.636;0.278;2023-05-24T07:34:36;97052.19;;;20.90;56.72
56719;BME280;42597;40.636;0.278;2023-05-24T07:37:04;97053.53;;;21.05;55.99
56719;BME280;42597;40.636;0.278;2023-05-24T07:39:29;97058.53;;;21.10;56.05
56719;BME280;42597;40.636;0.278;2023-05-24T07:41:55;97060.84;;;21.15;55.19
56719;BME280;42597;40.636;0.278;2023-05-24T07:44:22;97051.00;;;21.14;54.02
56719;BME280;42597;40.636;0.278;2023-05-24T07:46:48;97054.78;;;21.24;52.68
56719;BME280;42597;40.636;0.278;2023-05-24T07:49:15;97052.59;;;21.15;53.21
56719;BME280;42597;40.636;0.278;2023-05-24T07:51:41;97059.78;;;21.33;52.81
56719;BME280;42597;40.636;0.278;2023-05-24T07:54:06;97057.69;;;21.40;52.06
56719;BME280;42597;40.636;0.278;2023-05-24T07:56:32;97062.47;;;21.36;49.93
56719;BME280;42597;40.636;0.278;2023-05-24T07:58:58;97056.66;;;21.54;48.19
56719;BME280;42597;40.636;0.278;2023-05-24T08:01:32;97058.94;;;21.59;47.85
56719;BME280;42597;40.636;0.278;2023-05-24T08:04:02;97063.09;;;21.67;47.48
56719;BME280;42597;40.636;0.278;2023-05-24T08:06:29;97062.03;;;21.61;47.04
56719;BME280;42597;40.636;0.278;2023-05-24T08:08:55;97068.94;;;21.69;46.98
56719;BME280;42597;40.636;0.278;2023-05-24T08:11:21;97067.59;;;21.58;46.22
56719;BME280;42597;40.636;0.278;2023-05-24T08:13:47;97071.97;;;21.55;45.19
56719;BME280;42597;40.636;0.278;2023-05-24T08:16:13;97063.22;;;21.60;46.38
56719;BME280;42597;40.636;0.278;2023-05-24T08:18:39;97065.31;;;21.76;46.85
56719;BME280;42597;40.636;0.278;2023-05-24T08:21:04;97079.81;;;21.77;45.88
56719;BME280;42597;40.636;0.278;2023-05-24T08:23:30;97066.72;;;22.04;45.94
56719;BME280;42597;40.636;0.278;2023-05-24T08:25:57;97063.91;;;21.88;44.53
56719;BME280;42597;40.636;0.278;2023-05-24T08:28:23;97073.13;;;21.98;44.96
56719;BME280;42597;40.636;0.278;2023-05-24T08:30:48;97063.13;;;22.07;46.40
56719;BME280;42597;40.636;0.278;2023-05-24T08:33:14;97053.25;;;22.10;44.97
56719;BME280;42597;40.636;0.278;2023-05-24T08:35:40;97062.91;;;21.98;44.88
56719;BME280;42597;40.636;0.278;2023-05-24T08:38:07;97070.34;;;22.21;44.39
56719;BME280;42597;40.636;0.278;2023-05-24T08:40:33;97080.91;;;22.23;45.33
56719;BME280;42597;40.636;0.278;2023-05-24T08:43:00;97074.94;;;22.28;44.91
56719;BME280;42597;40.636;0.278;2023-05-24T08:45:29;97075.63;;;22.32;45.97
56719;BME280;42597;40.636;0.278;2023-05-24T08:47:56;97076.72;;;22.54;45.70
56719;BME280;42597;40.636;0.278;2023-05-24T08:50:23;97080.56;;;22.40;45.05
56719;BME280;42597;40.636;0.278;2023-05-24T08:52:50;97078.13;;;22.62;45.19
56719;BME280;42597;40.636;0.278;2023-05-24T08:55:16;97080.47;;;22.64;45.76
56719;BME280;42597;40.636;0.278;2023-05-24T08:57:44;97082.28;;;22.87;45.82
56719;BME280;42597;40.636;0.278;2023-05-24T09:00:10;97089.00;;;22.86;46.08
56719;BME280;42597;40.636;0.278;2023-05-24T09:02:42;97093.13;;;22.78;45.66
56719;BME280;42597;40.636;0.278;2023-05-24T09:05:10;97086.03;;;22.60;46.09
56719;BME280;42597;40.636;0.278;2023-05-24T09:07:36;97094.03;;;22.91;45.53
56719;BME280;42597;40.636;0.278;2023-05-24T09:10:07;97096.28;;;22.60;46.44
56719;BME280;42597;40.636;0.278;2023-05-24T09:12:34;97090.94;;;22.53;47.20
56719;BME280;42597;40.636;0.278;2023-05-24T09:15:02;97093.88;;;22.62;47.02
56719;BME280;42597;40.636;0.278;2023-05-24T09:17:33;97107.22;;;22.63;46.58
56719;BME280;42597;40.636;0.278;2023-05-24T09:19:59;97096.56;;;22.82;46.65
56719;BME280;42597;40.636;0.278;2023-05-24T09:22:28;97098.06;;;22.50;48.34
56719;BME280;42597;40.636;0.278;2023-05-24T09:25:01;97096.50;;;22.49;47.60
56719;BME280;42597;40.636;0.278;2023-05-24T09:27:27;97094.34;;;22.77;46.46
56719;BME280;42597;40.636;0.278;2023-05-24T09:29:55;97101.25;;;22.85;47.00
56719;BME280;42597;40.636;0.278;2023-05-24T09:32:22;97111.94;;;22.63;48.05
56719;BME280;42597;40.636;0.278;2023-05-24T09:34:50;97097.78;;;22.81;47.33
56719;BME280;42597;40.636;0.278;2023-05-24T09:37:18;97099.34;;;22.82;47.09
56719;BME280;42597;40.636;0.278;2023-05-24T09:39:46;97096.47;;;23.05;46.78
56719;BME280;42597;40.636;0.278;2023-05-24T09:42:16;97094.84;;;23.24;47.05
56719;BME280;42597;40.636;0.278;2023-05-24T09:44:43;97095.59;;;22.92;47.40
56719;BME280;42597;40.636;0.278;2023-05-24T09:47:09;97103.63;;;22.83;47.30
56719;BME280;42597;40.636;0.278;2023-05-24T09:49:37;97100.78;;;23.06;46.99
56719;BME280;42597;40.636;0.278;2023-05-24T09:52:03;97108.16;;;22.93;46.26
56719;BME280;42597;40.636;0.278;2023-05-24T09:54:31;97109.31;;;23.28;45.88
56719;BME280;42597;40.636;0.278;2023-05-24T09:57:04;97112.63;;;22.67;46.22
56719;BME280;42597;40.636;0.278;2023-05-24T09:59:32;97105.59;;;23.02;45.77
56719;BME280;42597;40.636;0.278;2023-05-24T10:02:10;97115.34;;;22.87;45.82
56719;BME280;42597;40.636;0.278;2023-05-24T10:04:39;97115.75;;;23.05;44.50
56719;BME280;42597;40.636;0.278;2023-05-24T10:07:06;97110.94;;;23.42;43.04
56719;BME280;42597;40.636;0.278;2023-05-24T10:09:33;97109.41;;;23.25;46.09
56719;BME280;42597;40.636;0.278;2023-05-24T10:12:04;97102.16;;;23.14;46.53
56719;BME280;42597;40.636;0.278;2023-05-24T10:14:31;97111.81;;;23.23;44.64
56719;BME280;42597;40.636;0.278;2023-05-24T10:16:58;97108.53;;;23.11;45.99
56719;BME280;42597;40.636;0.278;2023-05-24T10:19:24;97109.31;;;23.12;46.63
56719;BME280;42597;40.636;0.278;2023-05-24T10:21:52;97114.22;;;23.21;44.92
56719;BME280;42597;40.636;0.278;2023-05-24T10:24:23;97110.88;;;23.13;43.61
56719;BME280;42597;40.636;0.278;2023-05-24T10:26:51;97110.44;;;23.31;44.49
56719;BME280;42597;40.636;0.278;2023-05-24T10:29:26;97119.75;;;23.37;45.30
56719;BME280;42597;40.636;0.278;2023-05-24T10:31:57;97107.06;;;23.07;46.66
56719;BME280;42597;40.636;0.278;2023-05-24T10:34:24;97101.13;;;23.25;46.32
56719;BME280;42597;40.636;0.278;2023-05-24T10:36:51;97113.00;;;23.22;46.84
56719;BME280;42597;40.636;0.278;2023-05-24T10:39:20;97103.88;;;22.92;47.71
56719;BME280;42597;40.636;0.278;2023-05-24T10:41:46;97103.88;;;22.92;47.60
56719;BME280;42597;40.636;0.278;2023-05-24T10:44:12;97099.47;;;23.11;46.28
56719;BME280;42597;40.636;0.278;2023-05-24T10:47:12;97099.06;;;23.45;45.18
56719;BME280;42597;40.636;0.278;2023-05-24T10:49:49;97095.16;;;23.43;44.67
56719;BME280;42597;40.636;0.278;2023-05-24T10:52:17;97098.19;;;23.48;44.83
56719;BME280;42597;40.636;0.278;2023-05-24T10:55:04;97089.13;;;23.64;44.24
56719;BME280;42597;40.636;0.278;2023-05-24T10:57:33;97099.91;;;23.26;44.77
56719;BME280;42597;40.636;0.278;2023-05-24T11:00:28;97096.16;;;23.36;46.31
56719;BME280;42597;40.636;0.278;2023-05-24T11:03:02;97105.00;;;23.60;46.10
56719;BME280;42597;40.636;0.278;2023-05-24T11:05:55;97100.31;;;23.89;46.46
56719;BME280;42597;40.636;0.278;2023-05-24T11:08:32;97095.25;;;23.72;46.44
56719;BME280;42597;40.636;0.278;2023-05-24T11:11:15;97109.50;;;23.37;48.50
56719;BME280;42597;40.636;0.278;2023-05-24T11:13:41;97098.53;;;23.50;48.66
56719;BME280;42597;40.636;0.278;2023-05-24T11:16:08;97084.78;;;23.79;46.69
56719;BME280;42597;40.636;0.278;2023-05-24T11:18:35;97097.28;;;23.84;47.61
56719;BME280;42597;40.636;0.278;2023-05-24T11:21:07;97094.69;;;23.93;47.72
56719;BME280;42597;40.636;0.278;2023-05-24T11:23:33;97090.09;;;23.74;47.23
56719;BME280;42597;40.636;0.278;2023-05-24T11:26:00;97097.75;;;23.66;48.45
56719;BME280;42597;40.636;0.278;2023-05-24T11:28:27;97083.94;;;23.82;48.88
56719;BME280;42597;40.636;0.278;2023-05-24T11:30:52;97091.75;;;24.00;48.60
56719;BME280;42597;40.636;0.278;2023-05-24T11:33:20;97083.50;;;23.84;48.44
56719;BME280;42597;40.636;0.278;2023-05-24T11:35:49;97090.78;;;23.29;49.30
56719;BME280;42597;40.636;0.278;2023-05-24T11:38:15;97084.06;;;23.46;49.45
56719;BME280;42597;40.636;0.278;2023-05-24T11:40:42;97083.38;;;23.42;49.91
56719;BME280;42597;40.636;0.278;2023-05-24T11:45:40;97071.72;;;23.51;50.42
56719;BME280;42597;40.636;0.278;2023-05-24T11:48:10;97075.06;;;23.75;49.69
56719;BME280;42597;40.636;0.278;2023-05-24T11:50:43;97077.25;;;23.18;50.77
56719;BME280;42597;40.636;0.278;2023-05-24T11:53:12;97067.34;;;23.53;49.29
56719;BME280;42597;40.636;0.278;2023-05-24T11:55:39;97065.06;;;23.81;48.30
56719;BME280;42597;40.636;0.278;2023-05-24T11:58:13;97072.50;;;23.35;51.27
56719;BME280;42597;40.636;0.278;2023-05-24T12:00:44;97069.41;;;23.49;49.95
56719;BME280;42597;40.636;0.278;2023-05-24T12:03:09;97057.94;;;23.51;49.70
56719;BME280;42597;40.636;0.278;2023-05-24T12:05:36;97062.59;;;23.54;49.83
56719;BME280;42597;40.636;0.278;2023-05-24T12:08:06;97059.72;;;23.74;49.45
56719;BME280;42597;40.636;0.278;2023-05-24T12:10:38;97054.66;;;24.01;48.30
56719;BME280;42597;40.636;0.278;2023-05-24T12:13:05;97052.03;;;24.10;46.77
56719;BME280;42597;40.636;0.278;2023-05-24T12:15:42;97055.31;;;24.05;46.45
56719;BME280;42597;40.636;0.278;2023-05-24T12:18:21;97051.47;;;24.16;46.80
56719;BME280;42597;40.636;0.278;2023-05-24T12:20:48;97044.28;;;24.05;46.83
56719;BME280;42597;40.636;0.278;2023-05-24T12:23:14;97048.31;;;23.88;46.48
56719;BME280;42597;40.636;0.278;2023-05-24T12:25:41;97051.09;;;23.88;48.62
56719;BME280;42597;40.636;0.278;2023-05-24T12:28:08;97047.84;;;23.77;46.93
56719;BME280;42597;40.636;0.278;2023-05-24T12:30:36;97048.88;;;23.50;50.21
56719;BME280;42597;40.636;0.278;2023-05-24T12:33:02;97057.19;;;23.18;51.54
56719;BME280;42597;40.636;0.278;2023-05-24T12:35:28;97051.00;;;23.75;49.61
56719;BME280;42597;40.636;0.278;2023-05-24T12:37:58;97051.28;;;23.81;49.36
56719;BME280;42597;40.636;0.278;2023-05-24T12:40:24;97046.47;;;23.69;48.89
56719;BME280;42597;40.636;0.278;2023-05-24T12:42:52;97050.03;;;23.36;51.48
56719;BME280;42597;40.636;0.278;2023-05-24T12:45:19;97052.34;;;23.38;50.75
56719;BME280;42597;40.636;0.278;2023-05-24T12:47:51;97054.59;;;23.27;51.34
56719;BME280;42597;40.636;0.278;2023-05-24T12:50:17;97056.16;;;23.28;48.80
56719;BME280;42597;40.636;0.278;2023-05-24T12:52:44;97044.09;;;23.38;51.33
56719;BME280;42597;40.636;0.278;2023-05-24T12:55:13;97048.06;;;23.37;51.25
56719;BME280;42597;40.636;0.278;2023-05-24T12:57:42;97051.00;;;23.13;49.35
56719;BME280;42597;40.636;0.278;2023-05-24T13:00:09;97049.78;;;22.98;49.29
56719;BME280;42597;40.636;0.278;2023-05-24T13:02:36;97055.66;;;23.00;50.30
56719;BME280;42597;40.636;0.278;2023-05-24T13:05:02;97046.19;;;23.18;51.47
56719;BME280;42597;40.636;0.278;2023-05-24T13:07:29;97051.50;;;23.25;51.55
56719;BME280;42597;40.636;0.278;2023-05-24T13:09:55;97043.75;;;23.36;51.49
56719;BME280;42597;40.636;0.278;2023-05-24T13:12:23;97050.63;;;23.11;49.42
56719;BME280;42597;40.636;0.278;2023-05-24T13:14:48;97056.34;;;23.21;51.43
56719;BME280;42597;40.636;0.278;2023-05-24T13:17:14;97047.69;;;23.35;51.65
56719;BME280;42597;40.636;0.278;2023-05-24T13:19:42;97046.41;;;22.90;52.09
56719;BME280;42597;40.636;0.278;2023-05-24T13:22:08;97047.69;;;22.86;52.98
56719;BME280;42597;40.636;0.278;2023-05-24T13:24:34;97041.31;;;22.89;53.03
56719;BME280;42597;40.636;0.278;2023-05-24T13:27:01;97039.97;;;23.13;51.75
56719;BME280;42597;40.636;0.278;2023-05-24T13:29:28;97043.94;;;22.96;51.89